Cook Springs, Alabama
Current Conditions -  °F | °C
As of 4:15 PM on Saturday 20 Dec 2014 (Local Time) from KASN Reporting Station
Overcast Overcast  
Wind Chill: 50°   Ceiling: 2500
Heat Index: 50°   Visibility: 10mi
Dew Point: 42°   Wind: 3mph
Humidity: 73%   Direction: 20°NNE
Pressure: 30.18"   Gusts: NA
Location:  33.59°N, 86.39°W
Report Text: KASN 202215Z AUTO 02003KT 10SM OVC025 10/05 A3018 RMK AO2 T01000054
Loading
Personal Weather Stations






























Interactive Weather Map New forecast layout! Learn more

10-Day Weather Forecast

Advertisements
Track Severe Weather on mobile